Airfield :
LOGIN :

Register | Disclaimer

   EN    FR    IT 

 










Legend :    VFR   Marginal VFR   IFR   Intensive IFR   Very Intensive IFR
Visi :
Ceiling :
>= 8 km
>= 3000ft
5 to 8 km
1000 to 3000 ft
1500m to 5 km
500 to 1000 ft
800 to 1500m
200 to 500 ft
< 800m
< 200 ft
Symbols :   Thunderstorms  Fog  Heavy snow  Heavy precipitations  Wind > 20 kt
SIGMETs :     Misc.  Thunderstorms  Icing  Turbulence  Mountain Waves  Volcanic Ashes






- Airport Elevation : 32 ft
- IATA code : LKZ


EGUL - RAF Lakenheath

CURRENT METAR :
  • 150356Z AUTO 00000KT 9999 CLR M03/M03 A3051 RMK AO2 SLP336 T10291030

EXPIRED METARs :
  • 150256Z AUTO 00000KT 9999 CLR M03/M03 A3051 RMK AO2 SLP336 T10311032 55002
  • 150156Z AUTO 00000KT 9999 CLR M02/M03 A3051 RMK AO2 SLP336 T10251026

TAF TAF EGUL
Valid from the 15 at 04:00 until the 16 at 10:00 UTC


150400Z 1504/1610 03006KT 9999 SCT030 QNH3051INS
BECMG 1601/1602 04009KT 9999 BKN015 QNH3049INS
TEMPO 1602/1606 04006KT 5000 BR BKN008 BKN020
BECMG 1606/1607 02009KT 9999 SCT020 QNH3046INS TX08/1510Z TNM02/1504Z



MET'MAP, your aeronautical weather chart ! - Copyright ORBIFLY December 2007 - Disclaimer

ORBIFLY MET'MAP TEAM :

Programming & Development : Alexandra Zaïnal
Concept & original design : Baudouin d'Aumeries
Assistance for programming : Marc-Olivier Méhu
Technical & hardware support : Manuel Goepfert

Contact : metmap@orbifly.com




SOURCES & CREDITS :

   NOAA